sensor_id;sensor_type;location;lat;lon;timestamp;pressure;altitude;pressure_sealevel;temperature;humidity
10135;BME280;5107;48.850;8.924;2023-08-01T00:01:47;95855.50;;;17.74;86.00
10135;BME280;5107;48.850;8.924;2023-08-01T00:04:13;95857.91;;;17.75;85.83
10135;BME280;5107;48.850;8.924;2023-08-01T00:06:38;95849.38;;;17.73;85.66
10135;BME280;5107;48.850;8.924;2023-08-01T00:09:03;95857.81;;;17.70;86.76
10135;BME280;5107;48.850;8.924;2023-08-01T00:11:29;95841.25;;;17.68;86.62
10135;BME280;5107;48.850;8.924;2023-08-01T00:13:54;95843.59;;;17.65;86.46
10135;BME280;5107;48.850;8.924;2023-08-01T00:16:19;95835.13;;;17.68;86.40
10135;BME280;5107;48.850;8.924;2023-08-01T00:18:45;95839.19;;;17.70;86.50
10135;BME280;5107;48.850;8.924;2023-08-01T00:21:10;95840.22;;;17.69;86.20
10135;BME280;5107;48.850;8.924;2023-08-01T00:23:37;95830.47;;;17.75;84.89
10135;BME280;5107;48.850;8.924;2023-08-01T00:26:02;95816.28;;;17.69;85.94
10135;BME280;5107;48.850;8.924;2023-08-01T00:28:31;95801.25;;;17.63;86.96
10135;BME280;5107;48.850;8.924;2023-08-01T00:31:08;95790.72;;;17.57;87.57
10135;BME280;5107;48.850;8.924;2023-08-01T00:33:36;95781.34;;;17.54;87.64
10135;BME280;5107;48.850;8.924;2023-08-01T00:36:01;95782.31;;;17.48;88.15
10135;BME280;5107;48.850;8.924;2023-08-01T00:38:27;95778.50;;;17.44;88.07
10135;BME280;5107;48.850;8.924;2023-08-01T00:40:52;95777.91;;;17.42;88.93
10135;BME280;5107;48.850;8.924;2023-08-01T00:43:18;95772.28;;;17.38;89.73
10135;BME280;5107;48.850;8.924;2023-08-01T00:45:45;95766.59;;;17.35;89.64
10135;BME280;5107;48.850;8.924;2023-08-01T00:48:10;95766.38;;;17.36;89.61
10135;BME280;5107;48.850;8.924;2023-08-01T00:50:36;95766.47;;;17.41;88.80
10135;BME280;5107;48.850;8.924;2023-08-01T00:53:01;95760.31;;;17.41;88.28
10135;BME280;5107;48.850;8.924;2023-08-01T00:55:28;95749.31;;;17.49;87.23
10135;BME280;5107;48.850;8.924;2023-08-01T00:57:54;95750.47;;;17.53;87.44
10135;BME280;5107;48.850;8.924;2023-08-01T01:00:19;95741.22;;;17.56;86.78
10135;BME280;5107;48.850;8.924;2023-08-01T01:02:45;95736.09;;;17.66;85.31
10135;BME280;5107;48.850;8.924;2023-08-01T01:05:10;95742.56;;;17.70;85.02
10135;BME280;5107;48.850;8.924;2023-08-01T01:07:36;95750.41;;;17.76;84.37
10135;BME280;5107;48.850;8.924;2023-08-01T01:10:02;95753.72;;;17.83;83.60
10135;BME280;5107;48.850;8.924;2023-08-01T01:12:27;95754.53;;;17.84;83.95
10135;BME280;5107;48.850;8.924;2023-08-01T01:14:52;95752.22;;;17.88;83.61
10135;BME280;5107;48.850;8.924;2023-08-01T01:17:18;95746.53;;;17.84;83.98
10135;BME280;5107;48.850;8.924;2023-08-01T01:19:43;95746.03;;;17.70;85.42
10135;BME280;5107;48.850;8.924;2023-08-01T01:22:09;95755.88;;;17.58;86.96
10135;BME280;5107;48.850;8.924;2023-08-01T01:24:35;95744.72;;;17.44;88.88
10135;BME280;5107;48.850;8.924;2023-08-01T01:27:03;95754.56;;;17.32;89.88
10135;BME280;5107;48.850;8.924;2023-08-01T01:29:30;95743.16;;;17.20;91.17
10135;BME280;5107;48.850;8.924;2023-08-01T01:31:56;95740.06;;;17.12;92.04
10135;BME280;5107;48.850;8.924;2023-08-01T01:34:22;95729.22;;;17.01;93.76
10135;BME280;5107;48.850;8.924;2023-08-01T01:36:48;95718.94;;;16.93;94.29
10135;BME280;5107;48.850;8.924;2023-08-01T01:39:13;95722.09;;;16.90;94.73
10135;BME280;5107;48.850;8.924;2023-08-01T01:41:39;95715.63;;;16.86;95.64
10135;BME280;5107;48.850;8.924;2023-08-01T01:44:04;95696.19;;;16.86;95.50
10135;BME280;5107;48.850;8.924;2023-08-01T01:46:29;95689.50;;;16.83;95.88
10135;BME280;5107;48.850;8.924;2023-08-01T01:48:54;95680.72;;;16.83;96.16
10135;BME280;5107;48.850;8.924;2023-08-01T01:51:25;95684.91;;;16.79;96.93
10135;BME280;5107;48.850;8.924;2023-08-01T01:53:50;95681.88;;;16.75;97.61
10135;BME280;5107;48.850;8.924;2023-08-01T01:56:16;95679.22;;;16.75;97.48
10135;BME280;5107;48.850;8.924;2023-08-01T01:58:41;95682.16;;;16.74;98.10
10135;BME280;5107;48.850;8.924;2023-08-01T02:01:06;95677.59;;;16.74;98.46
10135;BME280;5107;48.850;8.924;2023-08-01T02:03:32;95677.16;;;16.77;98.14
10135;BME280;5107;48.850;8.924;2023-08-01T02:05:57;95684.19;;;16.83;97.61
10135;BME280;5107;48.850;8.924;2023-08-01T02:08:22;95685.94;;;16.89;97.15
10135;BME280;5107;48.850;8.924;2023-08-01T02:10:48;95680.69;;;16.94;96.84
10135;BME280;5107;48.850;8.924;2023-08-01T02:13:14;95668.09;;;17.01;96.22
10135;BME280;5107;48.850;8.924;2023-08-01T02:15:39;95671.09;;;17.05;96.05
10135;BME280;5107;48.850;8.924;2023-08-01T02:18:04;95682.31;;;17.07;96.14
10135;BME280;5107;48.850;8.924;2023-08-01T02:20:30;95676.63;;;17.03;96.16
10135;BME280;5107;48.850;8.924;2023-08-01T02:22:55;95686.69;;;17.01;96.60
10135;BME280;5107;48.850;8.924;2023-08-01T02:25:20;95688.75;;;16.99;97.13
10135;BME280;5107;48.850;8.924;2023-08-01T02:27:45;95683.59;;;16.93;96.86
10135;BME280;5107;48.850;8.924;2023-08-01T02:30:11;95673.44;;;16.90;97.95
10135;BME280;5107;48.850;8.924;2023-08-01T02:32:36;95663.72;;;16.84;97.17
10135;BME280;5107;48.850;8.924;2023-08-01T02:35:02;95662.91;;;16.83;98.02
10135;BME280;5107;48.850;8.924;2023-08-01T02:37:27;95656.00;;;16.82;97.19
10135;BME280;5107;48.850;8.924;2023-08-01T02:39:52;95661.56;;;16.81;97.20
10135;BME280;5107;48.850;8.924;2023-08-01T02:42:18;95657.16;;;16.86;96.03
10135;BME280;5107;48.850;8.924;2023-08-01T02:44:43;95647.09;;;16.88;95.47
10135;BME280;5107;48.850;8.924;2023-08-01T02:47:08;95650.06;;;16.92;95.92
10135;BME280;5107;48.850;8.924;2023-08-01T02:49:34;95650.41;;;16.95;95.36
10135;BME280;5107;48.850;8.924;2023-08-01T02:51:59;95649.16;;;16.98;94.71
10135;BME280;5107;48.850;8.924;2023-08-01T02:54:24;95644.88;;;16.97;94.93
10135;BME280;5107;48.850;8.924;2023-08-01T02:56:50;95645.78;;;17.02;93.91
10135;BME280;5107;48.850;8.924;2023-08-01T02:59:16;95636.09;;;16.96;95.29
10135;BME280;5107;48.850;8.924;2023-08-01T03:01:43;95638.41;;;16.93;95.31
10135;BME280;5107;48.850;8.924;2023-08-01T03:04:09;95643.41;;;16.89;95.74
10135;BME280;5107;48.850;8.924;2023-08-01T03:06:37;95651.84;;;16.86;95.65
10135;BME280;5107;48.850;8.924;2023-08-01T03:09:02;95635.75;;;16.93;94.04
10135;BME280;5107;48.850;8.924;2023-08-01T03:11:27;95638.75;;;16.96;94.22
10135;BME280;5107;48.850;8.924;2023-08-01T03:13:53;95633.53;;;17.01;92.89
10135;BME280;5107;48.850;8.924;2023-08-01T03:16:18;95640.66;;;17.13;92.32
10135;BME280;5107;48.850;8.924;2023-08-01T03:18:44;95640.53;;;17.07;92.71
10135;BME280;5107;48.850;8.924;2023-08-01T03:21:09;95633.72;;;17.12;92.37
10135;BME280;5107;48.850;8.924;2023-08-01T03:23:36;95633.56;;;17.18;91.04
10135;BME280;5107;48.850;8.924;2023-08-01T03:26:02;95634.16;;;17.20;90.95
10135;BME280;5107;48.850;8.924;2023-08-01T03:28:28;95631.50;;;17.20;90.95
10135;BME280;5107;48.850;8.924;2023-08-01T03:30:53;95626.88;;;17.16;91.69
10135;BME280;5107;48.850;8.924;2023-08-01T03:33:22;95637.78;;;17.14;92.30
10135;BME280;5107;48.850;8.924;2023-08-01T03:35:47;95642.03;;;17.15;91.88
10135;BME280;5107;48.850;8.924;2023-08-01T03:38:13;95629.28;;;17.17;91.63
10135;BME280;5107;48.850;8.924;2023-08-01T03:40:38;95617.63;;;17.18;91.20
10135;BME280;5107;48.850;8.924;2023-08-01T03:43:04;95626.31;;;17.14;91.33
10135;BME280;5107;48.850;8.924;2023-08-01T03:45:30;95621.66;;;17.21;90.33
10135;BME280;5107;48.850;8.924;2023-08-01T03:47:55;95623.59;;;17.25;90.25
10135;BME280;5107;48.850;8.924;2023-08-01T03:50:20;95612.19;;;17.41;88.35
10135;BME280;5107;48.850;8.924;2023-08-01T03:52:46;95609.94;;;17.50;88.02
10135;BME280;5107;48.850;8.924;2023-08-01T03:55:11;95604.88;;;17.49;88.12
10135;BME280;5107;48.850;8.924;2023-08-01T03:57:37;95599.41;;;17.55;86.99
10135;BME280;5107;48.850;8.924;2023-08-01T04:00:05;95561.41;;;17.60;86.66
10135;BME280;5107;48.850;8.924;2023-08-01T04:02:30;95535.03;;;17.58;86.10
10135;BME280;5107;48.850;8.924;2023-08-01T04:04:56;95503.53;;;17.67;85.20
10135;BME280;5107;48.850;8.924;2023-08-01T04:07:21;95493.16;;;17.65;85.84
10135;BME280;5107;48.850;8.924;2023-08-01T04:09:46;95490.09;;;17.57;85.70
10135;BME280;5107;48.850;8.924;2023-08-01T04:12:12;95493.84;;;17.61;85.40
10135;BME280;5107;48.850;8.924;2023-08-01T04:14:37;95494.66;;;17.61;85.56
10135;BME280;5107;48.850;8.924;2023-08-01T04:17:03;95492.66;;;17.68;84.36
10135;BME280;5107;48.850;8.924;2023-08-01T04:19:28;95499.13;;;17.72;83.74
10135;BME280;5107;48.850;8.924;2023-08-01T04:21:53;95484.84;;;17.78;83.58
10135;BME280;5107;48.850;8.924;2023-08-01T04:24:19;95477.91;;;17.77;83.99
10135;BME280;5107;48.850;8.924;2023-08-01T04:26:44;95471.94;;;17.70;84.67
10135;BME280;5107;48.850;8.924;2023-08-01T04:29:10;95472.28;;;17.74;83.85
10135;BME280;5107;48.850;8.924;2023-08-01T04:31:35;95462.25;;;17.81;82.81
10135;BME280;5107;48.850;8.924;2023-08-01T04:34:00;95433.78;;;17.81;83.04
10135;BME280;5107;48.850;8.924;2023-08-01T04:36:26;95436.94;;;17.78;83.64
10135;BME280;5107;48.850;8.924;2023-08-01T04:38:51;95461.94;;;17.77;83.87
10135;BME280;5107;48.850;8.924;2023-08-01T04:41:16;95462.50;;;17.79;83.57
10135;BME280;5107;48.850;8.924;2023-08-01T04:43:41;95480.06;;;17.80;82.35
10135;BME280;5107;48.850;8.924;2023-08-01T04:46:07;95497.09;;;17.79;83.40
10135;BME280;5107;48.850;8.924;2023-08-01T04:48:32;95519.66;;;17.77;83.51
10135;BME280;5107;48.850;8.924;2023-08-01T04:50:57;95541.28;;;17.80;83.75
10135;BME280;5107;48.850;8.924;2023-08-01T04:53:23;95557.25;;;17.80;84.61
10135;BME280;5107;48.850;8.924;2023-08-01T04:55:48;95581.69;;;17.77;85.29
10135;BME280;5107;48.850;8.924;2023-08-01T04:58:14;95591.47;;;17.72;85.93
10135;BME280;5107;48.850;8.924;2023-08-01T05:00:41;95578.06;;;17.67;85.12
10135;BME280;5107;48.850;8.924;2023-08-01T05:03:06;95566.59;;;17.66;84.18
10135;BME280;5107;48.850;8.924;2023-08-01T05:05:32;95560.47;;;17.66;84.47
10135;BME280;5107;48.850;8.924;2023-08-01T05:07:57;95561.53;;;17.65;84.12
10135;BME280;5107;48.850;8.924;2023-08-01T05:10:22;95558.63;;;17.66;84.30
10135;BME280;5107;48.850;8.924;2023-08-01T05:12:48;95541.75;;;17.61;84.78
10135;BME280;5107;48.850;8.924;2023-08-01T05:15:13;95533.56;;;17.62;84.62
10135;BME280;5107;48.850;8.924;2023-08-01T05:17:38;95532.97;;;17.60;83.98
10135;BME280;5107;48.850;8.924;2023-08-01T05:20:04;95523.34;;;17.59;84.15
10135;BME280;5107;48.850;8.924;2023-08-01T05:22:30;95523.72;;;17.63;84.85
10135;BME280;5107;48.850;8.924;2023-08-01T05:24:55;95510.41;;;17.63;84.67
10135;BME280;5107;48.850;8.924;2023-08-01T05:27:21;95515.63;;;17.58;84.19
10135;BME280;5107;48.850;8.924;2023-08-01T05:29:46;95519.66;;;17.60;84.21
10135;BME280;5107;48.850;8.924;2023-08-01T05:32:11;95526.69;;;17.66;83.32
10135;BME280;5107;48.850;8.924;2023-08-01T05:34:37;95517.66;;;17.67;83.32
10135;BME280;5107;48.850;8.924;2023-08-01T05:37:02;95522.75;;;17.69;84.42
10135;BME280;5107;48.850;8.924;2023-08-01T05:39:27;95527.25;;;17.68;84.68
10135;BME280;5107;48.850;8.924;2023-08-01T05:41:53;95524.94;;;17.72;84.98
10135;BME280;5107;48.850;8.924;2023-08-01T05:44:18;95526.44;;;17.68;85.05
10135;BME280;5107;48.850;8.924;2023-08-01T05:46:44;95532.56;;;17.68;85.86
10135;BME280;5107;48.850;8.924;2023-08-01T05:49:09;95533.88;;;17.66;86.15
10135;BME280;5107;48.850;8.924;2023-08-01T05:51:34;95537.31;;;17.66;86.34
10135;BME280;5107;48.850;8.924;2023-08-01T05:54:00;95535.19;;;17.63;85.95
10135;BME280;5107;48.850;8.924;2023-08-01T05:56:25;95539.44;;;17.64;87.02
10135;BME280;5107;48.850;8.924;2023-08-01T05:58:50;95547.44;;;17.64;85.69
10135;BME280;5107;48.850;8.924;2023-08-01T06:01:16;95549.28;;;17.64;86.70
10135;BME280;5107;48.850;8.924;2023-08-01T06:03:42;95549.06;;;17.65;86.54
10135;BME280;5107;48.850;8.924;2023-08-01T06:06:07;95549.59;;;17.67;85.25
10135;BME280;5107;48.850;8.924;2023-08-01T06:08:33;95545.41;;;17.71;84.25
10135;BME280;5107;48.850;8.924;2023-08-01T06:10:58;95547.72;;;17.68;83.97
10135;BME280;5107;48.850;8.924;2023-08-01T06:13:24;95551.78;;;17.70;83.41
10135;BME280;5107;48.850;8.924;2023-08-01T06:15:52;95569.34;;;17.71;83.49
10135;BME280;5107;48.850;8.924;2023-08-01T06:18:17;95571.38;;;17.64;83.85
10135;BME280;5107;48.850;8.924;2023-08-01T06:20:43;95574.31;;;17.51;86.84
10135;BME280;5107;48.850;8.924;2023-08-01T06:23:08;95573.66;;;17.27;86.54
10135;BME280;5107;48.850;8.924;2023-08-01T06:25:33;95600.59;;;17.02;89.39
10135;BME280;5107;48.850;8.924;2023-08-01T06:27:59;95602.72;;;16.89;90.66
10135;BME280;5107;48.850;8.924;2023-08-01T06:30:24;95590.28;;;16.78;91.40
10135;BME280;5107;48.850;8.924;2023-08-01T06:32:49;95594.13;;;16.70;92.40
10135;BME280;5107;48.850;8.924;2023-08-01T06:35:15;95583.25;;;16.60;93.79
10135;BME280;5107;48.850;8.924;2023-08-01T06:37:40;95582.13;;;16.56;94.15
10135;BME280;5107;48.850;8.924;2023-08-01T06:40:06;95581.19;;;16.50;94.81
10135;BME280;5107;48.850;8.924;2023-08-01T06:42:33;95597.25;;;16.44;96.15
10135;BME280;5107;48.850;8.924;2023-08-01T06:44:58;95574.19;;;16.32;96.12
10135;BME280;5107;48.850;8.924;2023-08-01T06:47:23;95563.25;;;16.29;97.00
10135;BME280;5107;48.850;8.924;2023-08-01T06:49:49;95552.84;;;16.27;96.45
10135;BME280;5107;48.850;8.924;2023-08-01T06:52:14;95550.06;;;16.34;95.74
10135;BME280;5107;48.850;8.924;2023-08-01T06:54:40;95541.06;;;16.35;97.35
10135;BME280;5107;48.850;8.924;2023-08-01T06:57:06;95547.75;;;16.38;96.06
10135;BME280;5107;48.850;8.924;2023-08-01T06:59:32;95541.94;;;16.41;96.75
10135;BME280;5107;48.850;8.924;2023-08-01T07:01:57;95546.72;;;16.39;96.49
10135;BME280;5107;48.850;8.924;2023-08-01T07:04:23;95540.69;;;16.43;96.61
10135;BME280;5107;48.850;8.924;2023-08-01T07:06:49;95538.03;;;16.43;95.70
10135;BME280;5107;48.850;8.924;2023-08-01T07:09:14;95545.53;;;16.46;95.65
10135;BME280;5107;48.850;8.924;2023-08-01T07:11:40;95547.47;;;16.51;94.43
10135;BME280;5107;48.850;8.924;2023-08-01T07:14:05;95579.22;;;16.57;93.42
10135;BME280;5107;48.850;8.924;2023-08-01T07:16:31;95585.69;;;16.50;95.41
10135;BME280;5107;48.850;8.924;2023-08-01T07:18:57;95583.31;;;16.37;96.01
10135;BME280;5107;48.850;8.924;2023-08-01T07:21:23;95573.28;;;16.27;96.95
10135;BME280;5107;48.850;8.924;2023-08-01T07:23:48;95561.75;;;16.21;98.86
10135;BME280;5107;48.850;8.924;2023-08-01T07:26:13;95565.81;;;16.12;98.83
10135;BME280;5107;48.850;8.924;2023-08-01T07:28:39;95559.69;;;16.00;99.66
10135;BME280;5107;48.850;8.924;2023-08-01T07:31:06;95546.41;;;16.00;99.62
10135;BME280;5107;48.850;8.924;2023-08-01T07:33:34;95554.59;;;15.99;99.72
10135;BME280;5107;48.850;8.924;2023-08-01T07:36:00;95560.72;;;15.99;100.00
10135;BME280;5107;48.850;8.924;2023-08-01T07:38:25;95555.75;;;16.03;100.00
10135;BME280;5107;48.850;8.924;2023-08-01T07:40:54;95566.38;;;16.03;100.00
10135;BME280;5107;48.850;8.924;2023-08-01T07:43:20;95561.88;;;16.03;100.00
10135;BME280;5107;48.850;8.924;2023-08-01T07:45:46;95567.28;;;16.08;99.55
10135;BME280;5107;48.850;8.924;2023-08-01T07:48:11;95563.47;;;16.16;100.00
10135;BME280;5107;48.850;8.924;2023-08-01T07:50:37;95555.28;;;16.17;100.00
10135;BME280;5107;48.850;8.924;2023-08-01T07:53:02;95555.41;;;16.22;99.85
10135;BME280;5107;48.850;8.924;2023-08-01T07:55:27;95561.50;;;16.35;100.00
10135;BME280;5107;48.850;8.924;2023-08-01T07:57:52;95566.69;;;16.29;99.44
10135;BME280;5107;48.850;8.924;2023-08-01T08:00:18;95566.69;;;16.29;99.81
10135;BME280;5107;48.850;8.924;2023-08-01T08:02:44;95562.44;;;16.28;100.00
10135;BME280;5107;48.850;8.924;2023-08-01T08:05:10;95570.03;;;16.25;100.00
10135;BME280;5107;48.850;8.924;2023-08-01T08:07:36;95570.31;;;16.23;100.00
10135;BME280;5107;48.850;8.924;2023-08-01T08:10:03;95565.91;;;16.29;100.00
10135;BME280;5107;48.850;8.924;2023-08-01T08:12:29;95564.63;;;16.31;100.00
10135;BME280;5107;48.850;8.924;2023-08-01T08:14:54;95564.63;;;16.31;100.00
10135;BME280;5107;48.850;8.924;2023-08-01T08:17:19;95564.94;;;16.35;100.00
10135;BME280;5107;48.850;8.924;2023-08-01T08:19:45;95549.69;;;16.42;100.00
10135;BME280;5107;48.850;8.924;2023-08-01T08:22:10;95554.09;;;16.48;100.00
10135;BME280;5107;48.850;8.924;2023-08-01T08:24:35;95551.38;;;16.60;100.00
10135;BME280;5107;48.850;8.924;2023-08-01T08:27:01;95545.63;;;16.63;99.34
10135;BME280;5107;48.850;8.924;2023-08-01T08:29:26;95557.81;;;16.76;99.51
10135;BME280;5107;48.850;8.924;2023-08-01T08:31:52;95563.91;;;16.88;99.75
10135;BME280;5107;48.850;8.924;2023-08-01T08:34:17;95563.56;;;16.84;99.42
10135;BME280;5107;48.850;8.924;2023-08-01T08:36:43;95565.03;;;16.92;100.00
10135;BME280;5107;48.850;8.924;2023-08-01T08:39:08;95560.53;;;16.92;99.76
10135;BME280;5107;48.850;8.924;2023-08-01T08:41:46;95562.03;;;17.17;99.94
10135;BME280;5107;48.850;8.924;2023-08-01T08:44:14;95549.47;;;17.29;98.60
10135;BME280;5107;48.850;8.924;2023-08-01T08:46:42;95552.97;;;17.46;98.19
10135;BME280;5107;48.850;8.924;2023-08-01T08:49:08;95564.81;;;17.55;97.26
10135;BME280;5107;48.850;8.924;2023-08-01T08:51:36;95565.25;;;17.80;96.68
10135;BME280;5107;48.850;8.924;2023-08-01T08:54:01;95575.88;;;17.80;95.31
10135;BME280;5107;48.850;8.924;2023-08-01T08:56:28;95579.72;;;17.56;95.53
10135;BME280;5107;48.850;8.924;2023-08-01T08:58:54;95575.28;;;17.45;96.76
10135;BME280;5107;48.850;8.924;2023-08-01T09:01:20;95569.47;;;17.31;97.11
10135;BME280;5107;48.850;8.924;2023-08-01T09:03:45;95582.91;;;17.25;98.00
10135;BME280;5107;48.850;8.924;2023-08-01T09:08:39;95587.56;;;17.18;99.57
10135;BME280;5107;48.850;8.924;2023-08-01T09:11:05;95595.06;;;17.21;100.00
10135;BME280;5107;48.850;8.924;2023-08-01T09:13:31;95598.31;;;17.23;100.00
10135;BME280;5107;48.850;8.924;2023-08-01T09:15:57;95603.63;;;17.23;100.00
10135;BME280;5107;48.850;8.924;2023-08-01T09:18:22;95597.59;;;17.27;100.00
10135;BME280;5107;48.850;8.924;2023-08-01T09:20:49;95589.84;;;17.26;100.00
10135;BME280;5107;48.850;8.924;2023-08-01T09:23:15;95595.91;;;17.38;100.00
10135;BME280;5107;48.850;8.924;2023-08-01T09:25:42;95598.56;;;17.38;99.65
10135;BME280;5107;48.850;8.924;2023-08-01T09:28:34;95602.13;;;17.43;98.92
10135;BME280;5107;48.850;8.924;2023-08-01T09:30:59;95597.03;;;17.59;99.24
10135;BME280;5107;48.850;8.924;2023-08-01T09:33:25;95601.53;;;17.70;98.82
10135;BME280;5107;48.850;8.924;2023-08-01T09:35:50;95609.91;;;17.62;97.29
10135;BME280;5107;48.850;8.924;2023-08-01T09:38:16;95619.63;;;17.56;96.52
10135;BME280;5107;48.850;8.924;2023-08-01T09:40:43;95619.81;;;17.66;98.05
10135;BME280;5107;48.850;8.924;2023-08-01T09:43:10;95613.97;;;17.81;97.13
10135;BME280;5107;48.850;8.924;2023-08-01T09:45:36;95608.88;;;17.96;95.69
10135;BME280;5107;48.850;8.924;2023-08-01T09:48:02;95609.84;;;18.07;96.61
10135;BME280;5107;48.850;8.924;2023-08-01T09:50:27;95626.75;;;18.17;94.78
10135;BME280;5107;48.850;8.924;2023-08-01T09:52:52;95619.00;;;18.33;94.02
10135;BME280;5107;48.850;8.924;2023-08-01T09:55:28;95619.19;;;18.48;92.83
10135;BME280;5107;48.850;8.924;2023-08-01T09:57:57;95613.94;;;18.53;90.21
10135;BME280;5107;48.850;8.924;2023-08-01T10:00:25;95624.66;;;18.58;89.96
10135;BME280;5107;48.850;8.924;2023-08-01T10:02:52;95628.06;;;18.53;89.50
10135;BME280;5107;48.850;8.924;2023-08-01T10:05:19;95640.59;;;18.36;90.30
10135;BME280;5107;48.850;8.924;2023-08-01T10:07:45;95632.78;;;18.30;88.64
10135;BME280;5107;48.850;8.924;2023-08-01T10:10:11;95630.72;;;18.15;89.62
10135;BME280;5107;48.850;8.924;2023-08-01T10:12:37;95637.66;;;18.16;89.96
10135;BME280;5107;48.850;8.924;2023-08-01T10:15:03;95640.41;;;18.04;88.38
10135;BME280;5107;48.850;8.924;2023-08-01T10:17:30;95641.38;;;18.15;88.39
10135;BME280;5107;48.850;8.924;2023-08-01T10:19:56;95641.28;;;18.10;87.15
10135;BME280;5107;48.850;8.924;2023-08-01T10:22:23;95647.41;;;18.27;83.70
10135;BME280;5107;48.850;8.924;2023-08-01T10:24:50;95650.06;;;18.82;81.99
10135;BME280;5107;48.850;8.924;2023-08-01T10:27:20;95645.91;;;19.40;81.64
10135;BME280;5107;48.850;8.924;2023-08-01T10:29:57;95651.63;;;20.39;78.94
10135;BME280;5107;48.850;8.924;2023-08-01T10:32:32;95643.56;;;20.81;77.59
10135;BME280;5107;48.850;8.924;2023-08-01T10:34:58;95650.44;;;20.67;75.77
10135;BME280;5107;48.850;8.924;2023-08-01T10:37:23;95640.25;;;20.22;74.06
10135;BME280;5107;48.850;8.924;2023-08-01T10:39:56;95663.38;;;19.48;76.13
10135;BME280;5107;48.850;8.924;2023-08-01T10:42:22;95667.06;;;19.47;75.83
10135;BME280;5107;48.850;8.924;2023-08-01T10:44:47;95663.06;;;19.71;72.63
10135;BME280;5107;48.850;8.924;2023-08-01T10:47:13;95651.88;;;20.06;73.66
10135;BME280;5107;48.850;8.924;2023-08-01T10:49:40;95656.06;;;20.29;71.73
10135;BME280;5107;48.850;8.924;2023-08-01T10:52:20;95652.94;;;20.37;71.43
10135;BME280;5107;48.850;8.924;2023-08-01T10:55:02;95645.28;;;20.19;68.58
10135;BME280;5107;48.850;8.924;2023-08-01T10:57:29;95654.44;;;19.91;71.32
10135;BME280;5107;48.850;8.924;2023-08-01T10:59:56;95659.56;;;19.97;71.24
10135;BME280;5107;48.850;8.924;2023-08-01T11:02:28;95666.00;;;20.01;70.86
10135;BME280;5107;48.850;8.924;2023-08-01T11:07:22;95678.06;;;19.50;73.00
10135;BME280;5107;48.850;8.924;2023-08-01T11:09:48;95686.31;;;19.76;72.55
10135;BME280;5107;48.850;8.924;2023-08-01T11:12:13;95668.84;;;20.27;70.46
10135;BME280;5107;48.850;8.924;2023-08-01T11:14:38;95675.88;;;20.33;69.94
10135;BME280;5107;48.850;8.924;2023-08-01T11:17:04;95664.53;;;20.21;69.08
10135;BME280;5107;48.850;8.924;2023-08-01T11:19:29;95673.34;;;19.57;70.74
10135;BME280;5107;48.850;8.924;2023-08-01T11:21:56;95682.22;;;19.63;72.46
10135;BME280;5107;48.850;8.924;2023-08-01T11:24:23;95692.56;;;19.59;70.04
10135;BME280;5107;48.850;8.924;2023-08-01T11:26:50;95690.91;;;20.07;67.32
10135;BME280;5107;48.850;8.924;2023-08-01T11:29:17;95686.31;;;20.02;66.59
10135;BME280;5107;48.850;8.924;2023-08-01T11:31:57;95677.94;;;20.58;64.04
10135;BME280;5107;48.850;8.924;2023-08-01T11:34:23;95679.50;;;20.54;65.09
10135;BME280;5107;48.850;8.924;2023-08-01T11:36:49;95697.34;;;20.43;64.06
10135;BME280;5107;48.850;8.924;2023-08-01T11:39:15;95675.16;;;20.90;64.48
10135;BME280;5107;48.850;8.924;2023-08-01T11:41:41;95692.78;;;21.38;61.71
10135;BME280;5107;48.850;8.924;2023-08-01T11:44:07;95704.59;;;21.52;60.13
10135;BME280;5107;48.850;8.924;2023-08-01T11:46:34;95683.25;;;21.72;60.41
10135;BME280;5107;48.850;8.924;2023-08-01T11:49:01;95697.03;;;21.29;59.76
10135;BME280;5107;48.850;8.924;2023-08-01T11:51:27;95703.84;;;21.04;60.96
10135;BME280;5107;48.850;8.924;2023-08-01T11:54:03;95714.19;;;21.38;60.36
10135;BME280;5107;48.850;8.924;2023-08-01T11:56:30;95708.34;;;20.94;59.60
10135;BME280;5107;48.850;8.924;2023-08-01T11:58:55;95700.50;;;20.77;60.33
10135;BME280;5107;48.850;8.924;2023-08-01T12:01:21;95709.97;;;20.95;61.78
10135;BME280;5107;48.850;8.924;2023-08-01T12:03:52;95698.44;;;21.46;59.87
10135;BME280;5107;48.850;8.924;2023-08-01T12:06:19;95707.31;;;21.62;58.50
10135;BME280;5107;48.850;8.924;2023-08-01T12:08:46;95698.41;;;21.36;57.74
10135;BME280;5107;48.850;8.924;2023-08-01T12:11:28;95709.59;;;21.23;58.84
10135;BME280;5107;48.850;8.924;2023-08-01T12:14:01;95709.66;;;21.38;55.52
10135;BME280;5107;48.850;8.924;2023-08-01T12:16:28;95711.31;;;21.59;55.31
10135;BME280;5107;48.850;8.924;2023-08-01T12:18:53;95699.59;;;21.81;54.49
10135;BME280;5107;48.850;8.924;2023-08-01T12:21:19;95709.56;;;22.06;53.66
10135;BME280;5107;48.850;8.924;2023-08-01T12:23:44;95710.31;;;21.13;54.17
10135;BME280;5107;48.850;8.924;2023-08-01T12:26:09;95709.72;;;21.01;55.50
10135;BME280;5107;48.850;8.924;2023-08-01T12:28:35;95714.06;;;21.07;56.14
10135;BME280;5107;48.850;8.924;2023-08-01T12:31:01;95712.44;;;21.11;55.98
10135;BME280;5107;48.850;8.924;2023-08-01T12:33:26;95717.81;;;21.11;56.72
10135;BME280;5107;48.850;8.924;2023-08-01T12:35:51;95728.69;;;21.47;56.25
10135;BME280;5107;48.850;8.924;2023-08-01T12:38:17;95717.22;;;21.56;55.96
10135;BME280;5107;48.850;8.924;2023-08-01T12:43:07;95703.38;;;22.66;54.64
10135;BME280;5107;48.850;8.924;2023-08-01T12:45:33;95718.69;;;22.65;54.49
10135;BME280;5107;48.850;8.924;2023-08-01T12:47:58;95712.50;;;22.34;52.54
10135;BME280;5107;48.850;8.924;2023-08-01T12:50:23;95721.63;;;22.44;52.65
10135;BME280;5107;48.850;8.924;2023-08-01T12:52:49;95718.63;;;21.89;51.41
10135;BME280;5107;48.850;8.924;2023-08-01T12:55:14;95727.28;;;21.29;53.39
10135;BME280;5107;48.850;8.924;2023-08-01T12:57:39;95735.94;;;21.51;52.39
10135;BME280;5107;48.850;8.924;2023-08-01T13:00:05;95733.06;;;21.73;52.13
10135;BME280;5107;48.850;8.924;2023-08-01T13:02:31;95724.31;;;22.03;51.21
10135;BME280;5107;48.850;8.924;2023-08-01T13:04:57;95733.41;;;22.02;52.91
10135;BME280;5107;48.850;8.924;2023-08-01T13:07:22;95720.03;;;22.07;50.81
10135;BME280;5107;48.850;8.924;2023-08-01T13:09:47;95726.47;;;22.47;50.34
10135;BME280;5107;48.850;8.924;2023-08-01T13:12:13;95728.59;;;22.55;51.28